sensor_id;sensor_type;location;lat;lon;timestamp;temperature;humidity
51559;DHT22;61650;48.882;2.092;2022-11-15T00:01:23;9.10;91.10
51559;DHT22;61650;48.882;2.092;2022-11-15T00:03:52;9.00;91.20
51559;DHT22;61650;48.882;2.092;2022-11-15T00:06:18;9.00;91.80
51559;DHT22;61650;48.882;2.092;2022-11-15T00:08:43;9.10;92.80
51559;DHT22;61650;48.882;2.092;2022-11-15T00:11:10;9.10;91.80
51559;DHT22;61650;48.882;2.092;2022-11-15T00:13:36;9.10;92.00
51559;DHT22;61650;48.882;2.092;2022-11-15T00:16:02;9.10;91.30
51559;DHT22;61650;48.882;2.092;2022-11-15T00:18:29;8.90;90.80
51559;DHT22;61650;48.882;2.092;2022-11-15T00:20:55;9.00;92.30
51559;DHT22;61650;48.882;2.092;2022-11-15T00:23:20;9.00;91.70
51559;DHT22;61650;48.882;2.092;2022-11-15T00:25:46;9.00;91.80
51559;DHT22;61650;48.882;2.092;2022-11-15T00:28:12;9.00;91.20
51559;DHT22;61650;48.882;2.092;2022-11-15T00:30:37;8.90;91.40
51559;DHT22;61650;48.882;2.092;2022-11-15T00:33:04;8.80;91.70
51559;DHT22;61650;48.882;2.092;2022-11-15T00:35:32;8.90;91.80
51559;DHT22;61650;48.882;2.092;2022-11-15T00:38:02;9.00;91.50
51559;DHT22;61650;48.882;2.092;2022-11-15T00:40:28;9.00;90.50
51559;DHT22;61650;48.882;2.092;2022-11-15T00:42:53;9.10;90.00
51559;DHT22;61650;48.882;2.092;2022-11-15T00:45:19;9.00;89.80
51559;DHT22;61650;48.882;2.092;2022-11-15T00:47:45;9.00;89.70
51559;DHT22;61650;48.882;2.092;2022-11-15T00:50:11;9.00;90.00
51559;DHT22;61650;48.882;2.092;2022-11-15T00:52:37;9.00;89.20
51559;DHT22;61650;48.882;2.092;2022-11-15T00:55:03;9.00;89.10
51559;DHT22;61650;48.882;2.092;2022-11-15T00:57:28;9.00;89.20
51559;DHT22;61650;48.882;2.092;2022-11-15T00:59:54;8.90;89.30
51559;DHT22;61650;48.882;2.092;2022-11-15T01:02:20;8.80;89.50
51559;DHT22;61650;48.882;2.092;2022-11-15T01:04:45;8.80;89.90
51559;DHT22;61650;48.882;2.092;2022-11-15T01:07:11;8.70;90.30
51559;DHT22;61650;48.882;2.092;2022-11-15T01:09:36;8.70;89.90
51559;DHT22;61650;48.882;2.092;2022-11-15T01:12:02;8.70;90.10
51559;DHT22;61650;48.882;2.092;2022-11-15T01:14:28;8.60;89.90
51559;DHT22;61650;48.882;2.092;2022-11-15T01:16:53;8.50;89.60
51559;DHT22;61650;48.882;2.092;2022-11-15T01:19:19;8.50;90.20
51559;DHT22;61650;48.882;2.092;2022-11-15T01:21:44;8.50;90.30
51559;DHT22;61650;48.882;2.092;2022-11-15T01:24:13;8.50;90.30
51559;DHT22;61650;48.882;2.092;2022-11-15T01:26:39;8.40;90.30
51559;DHT22;61650;48.882;2.092;2022-11-15T01:29:04;8.40;90.40
51559;DHT22;61650;48.882;2.092;2022-11-15T01:31:30;8.40;90.30
51559;DHT22;61650;48.882;2.092;2022-11-15T01:33:55;8.40;90.30
51559;DHT22;61650;48.882;2.092;2022-11-15T01:36:22;8.30;90.00
51559;DHT22;61650;48.882;2.092;2022-11-15T01:38:53;8.30;90.30
51559;DHT22;61650;48.882;2.092;2022-11-15T01:41:23;8.30;90.50
51559;DHT22;61650;48.882;2.092;2022-11-15T01:43:52;8.30;90.50
51559;DHT22;61650;48.882;2.092;2022-11-15T01:48:48;8.30;90.20
51559;DHT22;61650;48.882;2.092;2022-11-15T01:51:17;8.30;90.00
51559;DHT22;61650;48.882;2.092;2022-11-15T01:53:47;8.30;89.40
51559;DHT22;61650;48.882;2.092;2022-11-15T01:56:18;8.30;89.50
51559;DHT22;61650;48.882;2.092;2022-11-15T01:58:45;8.20;89.20
51559;DHT22;61650;48.882;2.092;2022-11-15T02:01:12;8.30;89.00
51559;DHT22;61650;48.882;2.092;2022-11-15T02:03:59;8.20;89.30
51559;DHT22;61650;48.882;2.092;2022-11-15T02:06:26;8.20;89.30
51559;DHT22;61650;48.882;2.092;2022-11-15T02:08:52;8.20;88.60
51559;DHT22;61650;48.882;2.092;2022-11-15T02:11:17;8.10;88.80
51559;DHT22;61650;48.882;2.092;2022-11-15T02:13:43;8.10;89.40
51559;DHT22;61650;48.882;2.092;2022-11-15T02:16:27;8.00;89.50
51559;DHT22;61650;48.882;2.092;2022-11-15T02:30:44;8.10;87.40
51559;DHT22;61650;48.882;2.092;2022-11-15T02:33:31;8.10;88.00
51559;DHT22;61650;48.882;2.092;2022-11-15T02:36:05;8.10;88.20
51559;DHT22;61650;48.882;2.092;2022-11-15T02:41:53;8.10;87.60
51559;DHT22;61650;48.882;2.092;2022-11-15T02:44:26;8.10;86.90
51559;DHT22;61650;48.882;2.092;2022-11-15T02:47:02;8.00;86.70
51559;DHT22;61650;48.882;2.092;2022-11-15T02:49:43;8.00;87.20
51559;DHT22;61650;48.882;2.092;2022-11-15T02:52:17;8.00;87.00
51559;DHT22;61650;48.882;2.092;2022-11-15T02:54:56;7.90;86.80
51559;DHT22;61650;48.882;2.092;2022-11-15T03:00:13;7.90;87.30
51559;DHT22;61650;48.882;2.092;2022-11-15T03:08:09;7.90;86.30
51559;DHT22;61650;48.882;2.092;2022-11-15T03:10:46;7.90;87.20
51559;DHT22;61650;48.882;2.092;2022-11-15T03:16:20;7.90;87.50
51559;DHT22;61650;48.882;2.092;2022-11-15T03:19:02;7.90;87.60
51559;DHT22;61650;48.882;2.092;2022-11-15T03:21:30;7.90;86.90
51559;DHT22;61650;48.882;2.092;2022-11-15T03:23:58;7.90;87.20
51559;DHT22;61650;48.882;2.092;2022-11-15T03:26:28;7.80;87.00
51559;DHT22;61650;48.882;2.092;2022-11-15T03:29:06;7.80;87.70
51559;DHT22;61650;48.882;2.092;2022-11-15T03:31:36;7.80;86.70
51559;DHT22;61650;48.882;2.092;2022-11-15T03:35:02;7.90;87.30
51559;DHT22;61650;48.882;2.092;2022-11-15T03:37:08;7.80;86.80
51559;DHT22;61650;48.882;2.092;2022-11-15T03:39:35;7.80;87.20
51559;DHT22;61650;48.882;2.092;2022-11-15T03:47:11;7.50;87.60
51559;DHT22;61650;48.882;2.092;2022-11-15T03:49:43;7.50;87.10
51559;DHT22;61650;48.882;2.092;2022-11-15T03:52:10;7.30;87.10
51559;DHT22;61650;48.882;2.092;2022-11-15T03:54:36;7.30;87.90
51559;DHT22;61650;48.882;2.092;2022-11-15T03:57:02;7.20;88.70
51559;DHT22;61650;48.882;2.092;2022-11-15T03:59:27;7.10;88.50
51559;DHT22;61650;48.882;2.092;2022-11-15T04:01:53;7.00;88.40
51559;DHT22;61650;48.882;2.092;2022-11-15T04:04:18;7.00;88.70
51559;DHT22;61650;48.882;2.092;2022-11-15T04:06:44;7.00;89.00
51559;DHT22;61650;48.882;2.092;2022-11-15T04:09:10;7.00;89.30
51559;DHT22;61650;48.882;2.092;2022-11-15T04:11:35;6.90;89.40
51559;DHT22;61650;48.882;2.092;2022-11-15T04:14:01;6.90;89.40
51559;DHT22;61650;48.882;2.092;2022-11-15T04:16:26;6.90;89.40
51559;DHT22;61650;48.882;2.092;2022-11-15T04:18:52;6.80;89.90
51559;DHT22;61650;48.882;2.092;2022-11-15T04:21:37;6.90;89.50
51559;DHT22;61650;48.882;2.092;2022-11-15T04:24:21;6.70;89.30
51559;DHT22;61650;48.882;2.092;2022-11-15T04:26:47;6.70;90.20
51559;DHT22;61650;48.882;2.092;2022-11-15T04:29:12;6.70;90.30
51559;DHT22;61650;48.882;2.092;2022-11-15T04:31:56;6.80;90.40
51559;DHT22;61650;48.882;2.092;2022-11-15T04:34:22;6.70;89.40
51559;DHT22;61650;48.882;2.092;2022-11-15T04:36:48;6.60;90.30
51559;DHT22;61650;48.882;2.092;2022-11-15T04:39:32;6.60;90.50
51559;DHT22;61650;48.882;2.092;2022-11-15T04:41:57;6.50;90.60
51559;DHT22;61650;48.882;2.092;2022-11-15T04:44:23;6.50;90.20
51559;DHT22;61650;48.882;2.092;2022-11-15T04:46:48;6.40;90.50
51559;DHT22;61650;48.882;2.092;2022-11-15T04:49:14;6.50;91.10
51559;DHT22;61650;48.882;2.092;2022-11-15T04:51:39;6.50;90.60
51559;DHT22;61650;48.882;2.092;2022-11-15T04:54:05;6.40;90.70
51559;DHT22;61650;48.882;2.092;2022-11-15T04:56:31;6.40;90.80
51559;DHT22;61650;48.882;2.092;2022-11-15T04:58:56;6.40;91.30
51559;DHT22;61650;48.882;2.092;2022-11-15T05:01:22;6.50;91.60
51559;DHT22;61650;48.882;2.092;2022-11-15T05:03:47;6.60;91.80
51559;DHT22;61650;48.882;2.092;2022-11-15T05:06:31;6.70;91.80
51559;DHT22;61650;48.882;2.092;2022-11-15T05:08:57;6.70;91.50
51559;DHT22;61650;48.882;2.092;2022-11-15T05:11:23;6.80;91.80
51559;DHT22;61650;48.882;2.092;2022-11-15T05:13:49;6.90;92.20
51559;DHT22;61650;48.882;2.092;2022-11-15T05:16:15;7.00;91.70
51559;DHT22;61650;48.882;2.092;2022-11-15T05:18:41;7.00;91.90
51559;DHT22;61650;48.882;2.092;2022-11-15T05:21:09;7.20;92.40
51559;DHT22;61650;48.882;2.092;2022-11-15T05:23:35;7.20;91.90
51559;DHT22;61650;48.882;2.092;2022-11-15T05:26:01;7.30;91.60
51559;DHT22;61650;48.882;2.092;2022-11-15T05:28:27;7.30;91.30
51559;DHT22;61650;48.882;2.092;2022-11-15T05:30:53;7.30;91.90
51559;DHT22;61650;48.882;2.092;2022-11-15T05:33:19;7.50;92.30
51559;DHT22;61650;48.882;2.092;2022-11-15T05:35:53;7.50;91.30
51559;DHT22;61650;48.882;2.092;2022-11-15T05:38:20;7.50;91.10
51559;DHT22;61650;48.882;2.092;2022-11-15T05:40:45;7.50;90.70
51559;DHT22;61650;48.882;2.092;2022-11-15T05:43:11;7.50;91.00
51559;DHT22;61650;48.882;2.092;2022-11-15T05:45:37;7.50;91.20
51559;DHT22;61650;48.882;2.092;2022-11-15T05:48:06;7.60;91.90
51559;DHT22;61650;48.882;2.092;2022-11-15T05:50:33;7.70;91.70
51559;DHT22;61650;48.882;2.092;2022-11-15T05:53:00;7.70;91.40
51559;DHT22;61650;48.882;2.092;2022-11-15T05:55:26;7.80;91.20
51559;DHT22;61650;48.882;2.092;2022-11-15T05:57:51;7.80;91.20
51559;DHT22;61650;48.882;2.092;2022-11-15T06:00:17;7.80;91.10
51559;DHT22;61650;48.882;2.092;2022-11-15T06:02:43;7.90;91.50
51559;DHT22;61650;48.882;2.092;2022-11-15T06:05:08;8.00;91.60
51559;DHT22;61650;48.882;2.092;2022-11-15T06:07:34;8.10;91.10
51559;DHT22;61650;48.882;2.092;2022-11-15T06:10:00;8.20;91.00
51559;DHT22;61650;48.882;2.092;2022-11-15T06:12:25;8.20;90.90
51559;DHT22;61650;48.882;2.092;2022-11-15T06:14:51;8.20;90.90
51559;DHT22;61650;48.882;2.092;2022-11-15T06:17:16;8.20;91.00
51559;DHT22;61650;48.882;2.092;2022-11-15T06:19:42;8.30;90.80
51559;DHT22;61650;48.882;2.092;2022-11-15T06:22:08;8.30;90.70
51559;DHT22;61650;48.882;2.092;2022-11-15T06:24:34;8.40;90.50
51559;DHT22;61650;48.882;2.092;2022-11-15T06:27:00;8.40;90.20
51559;DHT22;61650;48.882;2.092;2022-11-15T06:29:25;8.40;90.20
51559;DHT22;61650;48.882;2.092;2022-11-15T06:31:51;8.40;90.40
51559;DHT22;61650;48.882;2.092;2022-11-15T06:34:17;8.40;90.50
51559;DHT22;61650;48.882;2.092;2022-11-15T06:36:43;8.40;90.40
51559;DHT22;61650;48.882;2.092;2022-11-15T06:39:09;8.40;90.30
51559;DHT22;61650;48.882;2.092;2022-11-15T06:41:35;8.40;90.40
51559;DHT22;61650;48.882;2.092;2022-11-15T06:44:01;8.30;90.50
51559;DHT22;61650;48.882;2.092;2022-11-15T06:46:27;8.30;90.40
51559;DHT22;61650;48.882;2.092;2022-11-15T06:48:53;8.30;90.40
51559;DHT22;61650;48.882;2.092;2022-11-15T06:51:19;8.30;90.50
51559;DHT22;61650;48.882;2.092;2022-11-15T06:53:45;8.30;90.50
51559;DHT22;61650;48.882;2.092;2022-11-15T06:56:10;8.30;90.40
51559;DHT22;61650;48.882;2.092;2022-11-15T06:58:36;8.30;90.80
51559;DHT22;61650;48.882;2.092;2022-11-15T07:01:05;8.40;90.80
51559;DHT22;61650;48.882;2.092;2022-11-15T07:03:31;8.40;90.50
51559;DHT22;61650;48.882;2.092;2022-11-15T07:05:57;8.50;90.50
51559;DHT22;61650;48.882;2.092;2022-11-15T07:08:23;8.50;90.40
51559;DHT22;61650;48.882;2.092;2022-11-15T07:10:51;8.30;90.70
51559;DHT22;61650;48.882;2.092;2022-11-15T07:13:17;8.30;90.60
51559;DHT22;61650;48.882;2.092;2022-11-15T07:15:43;8.30;90.90
51559;DHT22;61650;48.882;2.092;2022-11-15T07:18:08;8.30;91.10
51559;DHT22;61650;48.882;2.092;2022-11-15T07:20:34;8.30;91.30
51559;DHT22;61650;48.882;2.092;2022-11-15T07:23:04;8.40;91.60
51559;DHT22;61650;48.882;2.092;2022-11-15T07:25:30;8.50;91.40
51559;DHT22;61650;48.882;2.092;2022-11-15T07:27:57;8.50;91.40
51559;DHT22;61650;48.882;2.092;2022-11-15T07:30:22;8.60;91.40
51559;DHT22;61650;48.882;2.092;2022-11-15T07:32:56;8.70;91.00
51559;DHT22;61650;48.882;2.092;2022-11-15T07:35:22;8.70;90.80
51559;DHT22;61650;48.882;2.092;2022-11-15T07:37:57;8.80;90.90
51559;DHT22;61650;48.882;2.092;2022-11-15T07:40:24;8.90;90.70
51559;DHT22;61650;48.882;2.092;2022-11-15T07:42:50;8.90;90.50
51559;DHT22;61650;48.882;2.092;2022-11-15T07:45:20;8.90;90.40
51559;DHT22;61650;48.882;2.092;2022-11-15T07:47:46;9.00;90.10
51559;DHT22;61650;48.882;2.092;2022-11-15T07:50:12;9.00;90.10
51559;DHT22;61650;48.882;2.092;2022-11-15T07:52:38;9.10;90.00
51559;DHT22;61650;48.882;2.092;2022-11-15T07:55:04;9.10;90.00
51559;DHT22;61650;48.882;2.092;2022-11-15T07:57:30;9.20;89.30
51559;DHT22;61650;48.882;2.092;2022-11-15T07:59:55;9.20;89.10
51559;DHT22;61650;48.882;2.092;2022-11-15T08:02:21;9.30;88.80
51559;DHT22;61650;48.882;2.092;2022-11-15T08:04:46;9.20;88.80
51559;DHT22;61650;48.882;2.092;2022-11-15T08:07:12;9.20;88.90
51559;DHT22;61650;48.882;2.092;2022-11-15T08:09:38;9.20;89.00
51559;DHT22;61650;48.882;2.092;2022-11-15T08:12:03;9.20;88.80
51559;DHT22;61650;48.882;2.092;2022-11-15T08:14:29;9.30;88.90
51559;DHT22;61650;48.882;2.092;2022-11-15T08:16:55;9.30;88.90
51559;DHT22;61650;48.882;2.092;2022-11-15T08:19:20;9.30;89.00
51559;DHT22;61650;48.882;2.092;2022-11-15T08:21:46;9.30;88.70
51559;DHT22;61650;48.882;2.092;2022-11-15T08:24:11;9.40;88.60
51559;DHT22;61650;48.882;2.092;2022-11-15T08:26:38;9.50;87.90
51559;DHT22;61650;48.882;2.092;2022-11-15T08:29:03;9.50;88.00
51559;DHT22;61650;48.882;2.092;2022-11-15T08:31:29;9.60;88.00
51559;DHT22;61650;48.882;2.092;2022-11-15T08:33:54;9.60;87.50
51559;DHT22;61650;48.882;2.092;2022-11-15T08:36:20;9.70;87.70
51559;DHT22;61650;48.882;2.092;2022-11-15T08:38:46;9.70;86.80
51559;DHT22;61650;48.882;2.092;2022-11-15T08:41:15;9.80;86.90
51559;DHT22;61650;48.882;2.092;2022-11-15T08:43:44;9.80;87.30
51559;DHT22;61650;48.882;2.092;2022-11-15T08:46:13;9.80;86.70
51559;DHT22;61650;48.882;2.092;2022-11-15T08:48:39;9.90;86.40
51559;DHT22;61650;48.882;2.092;2022-11-15T08:51:04;10.00;86.00
51559;DHT22;61650;48.882;2.092;2022-11-15T08:53:30;10.00;85.30
51559;DHT22;61650;48.882;2.092;2022-11-15T08:55:56;10.10;85.40
51559;DHT22;61650;48.882;2.092;2022-11-15T08:58:21;10.10;85.90
51559;DHT22;61650;48.882;2.092;2022-11-15T09:00:47;10.10;85.40
51559;DHT22;61650;48.882;2.092;2022-11-15T09:03:13;10.20;85.20
51559;DHT22;61650;48.882;2.092;2022-11-15T09:05:38;10.20;85.40
51559;DHT22;61650;48.882;2.092;2022-11-15T09:08:04;10.20;85.70
51559;DHT22;61650;48.882;2.092;2022-11-15T09:10:30;10.20;85.20
51559;DHT22;61650;48.882;2.092;2022-11-15T09:12:57;10.20;85.40
51559;DHT22;61650;48.882;2.092;2022-11-15T09:15:23;10.30;85.40
51559;DHT22;61650;48.882;2.092;2022-11-15T09:17:48;10.30;85.40
51559;DHT22;61650;48.882;2.092;2022-11-15T09:20:14;10.30;85.30
51559;DHT22;61650;48.882;2.092;2022-11-15T09:22:40;10.30;85.10
51559;DHT22;61650;48.882;2.092;2022-11-15T09:25:06;10.30;85.50
51559;DHT22;61650;48.882;2.092;2022-11-15T09:27:32;10.30;85.70
51559;DHT22;61650;48.882;2.092;2022-11-15T09:29:58;10.30;85.80
51559;DHT22;61650;48.882;2.092;2022-11-15T09:32:23;10.30;85.80
51559;DHT22;61650;48.882;2.092;2022-11-15T09:34:49;10.30;85.40
51559;DHT22;61650;48.882;2.092;2022-11-15T09:37:16;10.30;86.20
51559;DHT22;61650;48.882;2.092;2022-11-15T09:39:41;10.30;85.70
51559;DHT22;61650;48.882;2.092;2022-11-15T09:50:33;9.90;89.50
51559;DHT22;61650;48.882;2.092;2022-11-15T09:53:00;9.80;91.20
51559;DHT22;61650;48.882;2.092;2022-11-15T09:55:35;9.80;92.20
51559;DHT22;61650;48.882;2.092;2022-11-15T09:58:24;9.70;93.00
51559;DHT22;61650;48.882;2.092;2022-11-15T10:00:51;9.70;93.50
51559;DHT22;61650;48.882;2.092;2022-11-15T10:03:35;9.70;94.10
51559;DHT22;61650;48.882;2.092;2022-11-15T10:06:04;9.70;93.80
51559;DHT22;61650;48.882;2.092;2022-11-15T10:11:29;9.70;93.90
51559;DHT22;61650;48.882;2.092;2022-11-15T10:14:09;9.70;94.40
51559;DHT22;61650;48.882;2.092;2022-11-15T10:24:42;9.80;94.10
51559;DHT22;61650;48.882;2.092;2022-11-15T10:27:14;9.80;94.40
51559;DHT22;61650;48.882;2.092;2022-11-15T10:29:45;9.80;94.70
51559;DHT22;61650;48.882;2.092;2022-11-15T10:32:12;9.80;95.10
51559;DHT22;61650;48.882;2.092;2022-11-15T10:34:38;9.80;95.30
51559;DHT22;61650;48.882;2.092;2022-11-15T10:37:04;9.80;95.50
51559;DHT22;61650;48.882;2.092;2022-11-15T11:46:05;10.40;96.50
51559;DHT22;61650;48.882;2.092;2022-11-15T11:49:09;10.40;96.60
51559;DHT22;61650;48.882;2.092;2022-11-15T11:51:43;10.50;96.80
51559;DHT22;61650;48.882;2.092;2022-11-15T11:57:05;10.50;97.30
51559;DHT22;61650;48.882;2.092;2022-11-15T12:02:39;10.50;97.70
51559;DHT22;61650;48.882;2.092;2022-11-15T12:05:19;10.40;97.70
51559;DHT22;61650;48.882;2.092;2022-11-15T12:07:49;10.50;97.60
51559;DHT22;61650;48.882;2.092;2022-11-15T12:10:29;10.50;97.70
51559;DHT22;61650;48.882;2.092;2022-11-15T12:13:18;10.50;97.90
51559;DHT22;61650;48.882;2.092;2022-11-15T12:16:34;10.50;98.10
51559;DHT22;61650;48.882;2.092;2022-11-15T12:18:45;10.60;98.30
51559;DHT22;61650;48.882;2.092;2022-11-15T12:29:55;10.70;98.50
51559;DHT22;61650;48.882;2.092;2022-11-15T12:34:52;10.70;98.60
51559;DHT22;61650;48.882;2.092;2022-11-15T12:37:50;10.70;98.70
51559;DHT22;61650;48.882;2.092;2022-11-15T12:40:27;10.80;98.70
51559;DHT22;61650;48.882;2.092;2022-11-15T12:45:38;10.80;98.60
51559;DHT22;61650;48.882;2.092;2022-11-15T13:01:09;11.00;98.20
51559;DHT22;61650;48.882;2.092;2022-11-15T13:03:35;11.00;98.30
51559;DHT22;61650;48.882;2.092;2022-11-15T13:06:03;11.00;98.30
51559;DHT22;61650;48.882;2.092;2022-11-15T13:08:38;11.00;98.20
51559;DHT22;61650;48.882;2.092;2022-11-15T13:11:56;11.00;98.10
51559;DHT22;61650;48.882;2.092;2022-11-15T13:19:54;11.00;98.10
51559;DHT22;61650;48.882;2.092;2022-11-15T13:22:22;11.10;98.00
51559;DHT22;61650;48.882;2.092;2022-11-15T13:25:15;11.10;97.80
51559;DHT22;61650;48.882;2.092;2022-11-15T13:27:47;11.10;98.00
51559;DHT22;61650;48.882;2.092;2022-11-15T13:30:26;11.10;97.90
51559;DHT22;61650;48.882;2.092;2022-11-15T13:32:53;11.10;97.70
51559;DHT22;61650;48.882;2.092;2022-11-15T13:35:29;11.10;97.50
51559;DHT22;61650;48.882;2.092;2022-11-15T13:38:03;11.20;97.60
51559;DHT22;61650;48.882;2.092;2022-11-15T13:40:36;11.20;97.70
51559;DHT22;61650;48.882;2.092;2022-11-15T13:46:03;11.20;98.00
51559;DHT22;61650;48.882;2.092;2022-11-15T13:48:29;11.20;98.10
51559;DHT22;61650;48.882;2.092;2022-11-15T13:50:56;11.20;98.10
51559;DHT22;61650;48.882;2.092;2022-11-15T13:53:22;11.20;98.10
51559;DHT22;61650;48.882;2.092;2022-11-15T13:55:49;11.20;98.20
51559;DHT22;61650;48.882;2.092;2022-11-15T13:58:15;11.10;98.10
51559;DHT22;61650;48.882;2.092;2022-11-15T14:00:45;11.10;98.20
51559;DHT22;61650;48.882;2.092;2022-11-15T14:03:22;11.10;98.40
51559;DHT22;61650;48.882;2.092;2022-11-15T14:11:26;11.20;98.70
51559;DHT22;61650;48.882;2.092;2022-11-15T14:16:39;11.20;98.90
51559;DHT22;61650;48.882;2.092;2022-11-15T14:19:08;11.20;98.90
51559;DHT22;61650;48.882;2.092;2022-11-15T14:21:34;11.20;98.80
51559;DHT22;61650;48.882;2.092;2022-11-15T14:24:21;11.20;98.80
51559;DHT22;61650;48.882;2.092;2022-11-15T14:26:47;11.20;98.50
51559;DHT22;61650;48.882;2.092;2022-11-15T14:29:27;11.20;98.50
51559;DHT22;61650;48.882;2.092;2022-11-15T14:32:05;11.30;98.40
51559;DHT22;61650;48.882;2.092;2022-11-15T14:34:37;11.30;98.50
51559;DHT22;61650;48.882;2.092;2022-11-15T14:37:02;11.30;98.60
51559;DHT22;61650;48.882;2.092;2022-11-15T14:39:28;11.30;98.50
51559;DHT22;61650;48.882;2.092;2022-11-15T14:41:53;11.30;98.70
51559;DHT22;61650;48.882;2.092;2022-11-15T14:44:19;11.30;98.70
51559;DHT22;61650;48.882;2.092;2022-11-15T14:46:46;11.30;98.70
51559;DHT22;61650;48.882;2.092;2022-11-15T14:49:13;11.30;98.50
51559;DHT22;61650;48.882;2.092;2022-11-15T14:51:39;11.40;98.40
51559;DHT22;61650;48.882;2.092;2022-11-15T14:54:05;11.40;98.40
51559;DHT22;61650;48.882;2.092;2022-11-15T14:56:30;11.40;98.40
51559;DHT22;61650;48.882;2.092;2022-11-15T14:58:56;11.40;98.30
51559;DHT22;61650;48.882;2.092;2022-11-15T15:01:25;11.50;98.00
51559;DHT22;61650;48.882;2.092;2022-11-15T15:03:51;11.50;97.90
51559;DHT22;61650;48.882;2.092;2022-11-15T15:06:19;11.50;97.70
51559;DHT22;61650;48.882;2.092;2022-11-15T15:08:45;11.60;97.60
51559;DHT22;61650;48.882;2.092;2022-11-15T15:11:25;11.60;97.80
51559;DHT22;61650;48.882;2.092;2022-11-15T15:13:52;11.60;97.30
51559;DHT22;61650;48.882;2.092;2022-11-15T15:16:18;11.70;97.00
51559;DHT22;61650;48.882;2.092;2022-11-15T15:18:44;11.70;97.20
51559;DHT22;61650;48.882;2.092;2022-11-15T15:21:27;11.70;97.10
51559;DHT22;61650;48.882;2.092;2022-11-15T15:23:53;11.70;97.00
51559;DHT22;61650;48.882;2.092;2022-11-15T15:26:20;11.70;97.20
51559;DHT22;61650;48.882;2.092;2022-11-15T15:28:46;11.60;97.40
51559;DHT22;61650;48.882;2.092;2022-11-15T15:31:13;11.60;97.60
51559;DHT22;61650;48.882;2.092;2022-11-15T15:33:39;11.60;97.70
51559;DHT22;61650;48.882;2.092;2022-11-15T15:38:56;11.60;97.70
51559;DHT22;61650;48.882;2.092;2022-11-15T15:41:23;11.60;97.90
51559;DHT22;61650;48.882;2.092;2022-11-15T15:43:48;11.60;97.90
51559;DHT22;61650;48.882;2.092;2022-11-15T15:46:16;11.60;98.00
51559;DHT22;61650;48.882;2.092;2022-11-15T15:48:43;11.70;97.90
51559;DHT22;61650;48.882;2.092;2022-11-15T15:51:09;11.70;97.70
51559;DHT22;61650;48.882;2.092;2022-11-15T15:53:35;11.70;97.50
51559;DHT22;61650;48.882;2.092;2022-11-15T15:56:01;11.80;97.10
51559;DHT22;61650;48.882;2.092;2022-11-15T15:58:26;11.80;96.90
51559;DHT22;61650;48.882;2.092;2022-11-15T16:00:52;11.80;96.80
51559;DHT22;61650;48.882;2.092;2022-11-15T16:03:18;11.80;96.60
51559;DHT22;61650;48.882;2.092;2022-11-15T16:05:44;11.80;96.70
51559;DHT22;61650;48.882;2.092;2022-11-15T16:08:22;11.80;96.70
51559;DHT22;61650;48.882;2.092;2022-11-15T16:10:48;11.80;96.70
51559;DHT22;61650;48.882;2.092;2022-11-15T16:13:14;11.80;96.60
51559;DHT22;61650;48.882;2.092;2022-11-15T16:15:42;11.80;96.70
51559;DHT22;61650;48.882;2.092;2022-11-15T16:18:17;11.80;96.70
51559;DHT22;61650;48.882;2.092;2022-11-15T16:20:48;11.80;96.70
51559;DHT22;61650;48.882;2.092;2022-11-15T16:23:21;11.80;96.80
51559;DHT22;61650;48.882;2.092;2022-11-15T16:25:51;11.80;97.00
51559;DHT22;61650;48.882;2.092;2022-11-15T16:31:04;11.80;97.10
51559;DHT22;61650;48.882;2.092;2022-11-15T16:33:30;11.80;97.10
51559;DHT22;61650;48.882;2.092;2022-11-15T16:35:56;11.80;97.30
51559;DHT22;61650;48.882;2.092;2022-11-15T16:38:22;11.80;97.50
51559;DHT22;61650;48.882;2.092;2022-11-15T16:40:47;11.80;97.70
51559;DHT22;61650;48.882;2.092;2022-11-15T16:43:13;11.80;97.90
51559;DHT22;61650;48.882;2.092;2022-11-15T16:45:39;11.80;98.00
51559;DHT22;61650;48.882;2.092;2022-11-15T16:48:05;11.80;98.00
51559;DHT22;61650;48.882;2.092;2022-11-15T16:50:32;11.80;98.00
51559;DHT22;61650;48.882;2.092;2022-11-15T16:53:04;11.80;98.10
51559;DHT22;61650;48.882;2.092;2022-11-15T16:55:29;11.80;98.20
51559;DHT22;61650;48.882;2.092;2022-11-15T16:57:56;11.80;98.30
51559;DHT22;61650;48.882;2.092;2022-11-15T17:00:23;11.80;98.30
51559;DHT22;61650;48.882;2.092;2022-11-15T17:02:49;11.80;98.30
51559;DHT22;61650;48.882;2.092;2022-11-15T17:05:20;11.90;98.20
51559;DHT22;61650;48.882;2.092;2022-11-15T17:07:47;11.90;98.20
51559;DHT22;61650;48.882;2.092;2022-11-15T17:10:15;11.90;98.20
51559;DHT22;61650;48.882;2.092;2022-11-15T17:12:40;11.80;98.10
51559;DHT22;61650;48.882;2.092;2022-11-15T17:15:06;11.80;98.00
51559;DHT22;61650;48.882;2.092;2022-11-15T17:17:32;11.80;98.10
51559;DHT22;61650;48.882;2.092;2022-11-15T17:19:58;11.80;98.30
51559;DHT22;61650;48.882;2.092;2022-11-15T17:22:24;11.80;98.40
51559;DHT22;61650;48.882;2.092;2022-11-15T17:24:49;11.80;98.60
51559;DHT22;61650;48.882;2.092;2022-11-15T17:27:15;11.80;98.70
51559;DHT22;61650;48.882;2.092;2022-11-15T17:29:41;11.80;98.80
51559;DHT22;61650;48.882;2.092;2022-11-15T17:32:07;11.80;98.90
51559;DHT22;61650;48.882;2.092;2022-11-15T17:34:33;11.80;99.00
51559;DHT22;61650;48.882;2.092;2022-11-15T17:36:59;11.90;99.00
51559;DHT22;61650;48.882;2.092;2022-11-15T17:39:25;11.90;99.00
51559;DHT22;61650;48.882;2.092;2022-11-15T17:41:50;11.80;98.90
51559;DHT22;61650;48.882;2.092;2022-11-15T17:44:16;11.80;98.90
51559;DHT22;61650;48.882;2.092;2022-11-15T17:46:42;11.80;98.90
51559;DHT22;61650;48.882;2.092;2022-11-15T17:49:08;11.80;98.90
51559;DHT22;61650;48.882;2.092;2022-11-15T17:51:34;11.70;99.00
51559;DHT22;61650;48.882;2.092;2022-11-15T17:54:00;11.80;99.10
51559;DHT22;61650;48.882;2.092;2022-11-15T17:56:26;11.90;99.20
51559;DHT22;61650;48.882;2.092;2022-11-15T17:58:55;11.90;99.00
51559;DHT22;61650;48.882;2.092;2022-11-15T18:01:26;11.90;98.80
51559;DHT22;61650;48.882;2.092;2022-11-15T18:03:52;11.90;98.70
51559;DHT22;61650;48.882;2.092;2022-11-15T18:06:19;12.00;98.00
51559;DHT22;61650;48.882;2.092;2022-11-15T18:08:47;12.00;97.40
51559;DHT22;61650;48.882;2.092;2022-11-15T18:11:18;12.00;97.20
51559;DHT22;61650;48.882;2.092;2022-11-15T18:13:46;11.90;97.40
51559;DHT22;61650;48.882;2.092;2022-11-15T18:16:13;11.90;97.70
51559;DHT22;61650;48.882;2.092;2022-11-15T18:18:40;11.90;97.50
51559;DHT22;61650;48.882;2.092;2022-11-15T18:21:09;11.90;97.70
51559;DHT22;61650;48.882;2.092;2022-11-15T18:23:35;11.90;97.70
51559;DHT22;61650;48.882;2.092;2022-11-15T18:26:03;11.90;97.90
51559;DHT22;61650;48.882;2.092;2022-11-15T18:28:37;11.90;98.00
51559;DHT22;61650;48.882;2.092;2022-11-15T18:31:11;11.90;98.00
51559;DHT22;61650;48.882;2.092;2022-11-15T18:33:38;12.00;97.40
51559;DHT22;61650;48.882;2.092;2022-11-15T18:36:05;11.90;96.80
51559;DHT22;61650;48.882;2.092;2022-11-15T18:38:35;11.90;97.10
51559;DHT22;61650;48.882;2.092;2022-11-15T18:41:15;11.80;97.40
51559;DHT22;61650;48.882;2.092;2022-11-15T18:43:59;11.80;97.70